Terminal Aerodrome Forecast
Issued by NWS

Home | Current Version | Previous Version | Text Only | Print | Product List | Glossary Off
Versions: 1 2 3 4 5 6 7 8 9 10 11 12 13 14 15 16 17 18 19 20 21 22 23 24

000
FTUS41 KCLE 230000 AAA
TAFFDY
TAF AMD
KFDY 230019Z 2300/2324 29004KT P6SM SCT035
     FM230100 29004KT P6SM BKN035
     FM230400 02004KT P6SM SKC
      TEMPO 2311/2314 4SM BR
     FM231500 28005KT P6SM SCT250=

USA.gov is the U.S. government's official web portal to all federal, state and local government web resources and services.